Time;durP1;ratioP1;P1;durP2;ratioP2;P2;SDS_P1;SDS_P2;PMS_P1;PMS_P2;Temp;Humidity;BMP_temperature;BMP_pressure;BME280_temperature;BME280_humidity;BME280_pressure;Samples;Min_cycle;Max_cycle;Signal;HPM_P1;HPM_P2
2021/01/01 00:00:49;;;;;;;4.68;3.85;;;22.30;30.90;;;;;;5014933;28;20393;-68
2021/01/01 00:03:16;;;;;;;5.63;4.20;;;22.30;30.80;;;;;;5014339;28;20491;-68
2021/01/01 00:05:43;;;;;;;4.72;4.10;;;22.30;30.90;;;;;;5014598;28;20388;-68
2021/01/01 00:08:09;;;;;;;5.68;4.50;;;22.30;30.90;;;;;;5014879;28;20881;-68
2021/01/01 00:10:35;;;;;;;5.05;4.40;;;22.30;30.90;;;;;;5014596;28;20407;-68
2021/01/01 00:13:01;;;;;;;5.60;4.72;;;22.20;30.80;;;;;;5014814;28;20827;-69
2021/01/01 00:15:26;;;;;;;5.17;4.60;;;22.20;30.80;;;;;;5014116;28;20424;-68
2021/01/01 00:17:52;;;;;;;5.47;4.90;;;22.20;30.90;;;;;;5014792;28;20392;-68
2021/01/01 00:20:18;;;;;;;6.27;5.27;;;22.20;30.80;;;;;;5014765;28;20508;-68
2021/01/01 00:22:43;;;;;;;6.53;5.60;;;22.20;30.90;;;;;;5014523;28;20873;-68
2021/01/01 00:25:09;;;;;;;6.37;5.77;;;22.10;30.80;;;;;;4996868;28;20913;-68
2021/01/01 00:27:36;;;;;;;6.50;5.80;;;22.10;30.80;;;;;;5014156;28;20401;-68
2021/01/01 00:30:06;;;;;;;6.82;6.13;;;22.10;30.80;;;;;;5014684;28;20731;-68
2021/01/01 00:32:32;;;;;;;6.50;5.80;;;22.10;30.80;;;;;;5014464;28;20412;-68
2021/01/01 00:34:58;;;;;;;7.53;6.03;;;22.10;30.80;;;;;;5014391;28;20445;-68
2021/01/01 00:37:24;;;;;;;7.40;6.40;;;22.10;30.70;;;;;;5013808;28;20432;-68
2021/01/01 00:39:49;;;;;;;6.80;6.00;;;22.10;30.70;;;;;;4996923;28;20393;-68
2021/01/01 00:42:15;;;;;;;7.25;6.20;;;22.10;30.60;;;;;;5014299;28;20451;-68
2021/01/01 00:44:41;;;;;;;7.00;6.27;;;22.10;30.70;;;;;;5014200;28;20435;-68
2021/01/01 00:47:10;;;;;;;6.73;6.03;;;22.00;30.60;;;;;;5013564;28;20474;-69
2021/01/01 00:49:35;;;;;;;6.43;5.80;;;22.00;30.60;;;;;;5013902;28;20431;-68
2021/01/01 00:52:05;;;;;;;7.10;6.40;;;22.00;30.60;;;;;;5014156;28;20421;-68
2021/01/01 00:54:31;;;;;;;7.13;6.15;;;22.00;30.50;;;;;;5013884;28;20804;-68
2021/01/01 00:56:58;;;;;;;7.38;6.50;;;22.00;30.50;;;;;;5014046;28;20400;-68
2021/01/01 00:59:24;;;;;;;6.78;6.07;;;22.00;30.60;;;;;;5013488;28;20411;-68
2021/01/01 01:01:49;;;;;;;6.80;6.10;;;22.00;30.50;;;;;;5013898;28;20870;-69
2021/01/01 01:04:15;;;;;;;7.32;6.25;;;22.00;30.40;;;;;;5013740;28;20785;-68
2021/01/01 01:06:41;;;;;;;6.83;6.13;;;21.90;30.40;;;;;;5013815;28;20474;-68
2021/01/01 01:09:06;;;;;;;6.38;5.70;;;22.00;30.60;;;;;;5013812;28;20393;-68
2021/01/01 01:11:32;;;;;;;6.60;5.90;;;21.90;30.30;;;;;;4995796;28;20428;-68
2021/01/01 01:13:59;;;;;;;6.53;5.80;;;21.90;30.30;;;;;;5013711;28;20412;-68
2021/01/01 01:16:28;;;;;;;6.00;5.40;;;21.90;30.30;;;;;;5013609;28;20397;-68
2021/01/01 01:18:54;;;;;;;6.45;5.85;;;21.90;30.30;;;;;;5013543;28;20484;-68
2021/01/01 01:21:21;;;;;;;6.00;5.30;;;21.90;30.20;;;;;;5013088;28;20895;-68
2021/01/01 01:23:47;;;;;;;6.28;5.60;;;22.00;30.20;;;;;;5013341;28;20405;-68
2021/01/01 01:26:13;;;;;;;5.93;5.33;;;21.90;30.00;;;;;;5012267;28;20919;-69
2021/01/01 01:28:39;;;;;;;5.57;4.65;;;22.00;30.10;;;;;;5013476;28;20395;-68
2021/01/01 01:31:05;;;;;;;5.55;4.97;;;21.90;30.00;;;;;;5013314;28;20393;-68
2021/01/01 01:33:33;;;;;;;6.00;5.40;;;21.90;30.00;;;;;;5012630;28;20416;-68
2021/01/01 01:36:00;;;;;;;5.72;5.05;;;22.00;30.10;;;;;;5013154;28;20487;-68
2021/01/01 01:38:26;;;;;;;5.60;5.00;;;22.00;30.00;;;;;;5013217;28;20401;-68
2021/01/01 01:40:52;;;;;;;5.18;4.63;;;21.90;30.00;;;;;;5013028;28;20938;-68
2021/01/01 01:43:18;;;;;;;5.43;4.90;;;21.90;30.00;;;;;;5012556;28;20483;-68
2021/01/01 01:45:44;;;;;;;5.10;4.60;;;21.90;30.00;;;;;;5013036;28;20746;-68
2021/01/01 01:48:18;;;;;;;5.00;4.50;;;21.90;30.10;;;;;;5013017;28;20396;-68
2021/01/01 01:50:44;;;;;;;5.32;4.70;;;21.90;30.00;;;;;;5012878;28;20404;-68
2021/01/01 01:53:11;;;;;;;5.13;4.63;;;21.80;30.00;;;;;;5012645;28;20396;-68
2021/01/01 01:55:37;;;;;;;5.10;4.60;;;21.80;30.10;;;;;;5012484;28;20416;-68
2021/01/01 01:58:03;;;;;;;5.30;4.33;;;21.80;30.10;;;;;;5012184;28;20539;-68
2021/01/01 02:00:53;;;;;;;5.00;4.50;;;21.80;30.00;;;;;;5012697;28;20403;-68
2021/01/01 02:03:19;;;;;;;5.10;4.18;;;21.80;30.00;;;;;;5011739;28;20408;-68
2021/01/01 02:05:44;;;;;;;4.32;3.75;;;21.80;30.10;;;;;;4994847;28;20413;-68
2021/01/01 02:08:12;;;;;;;4.80;4.30;;;21.80;30.10;;;;;;5002922;28;20589;-69
2021/01/01 02:10:37;;;;;;;4.63;4.23;;;21.70;30.60;;;;;;5001292;28;20506;-68
2021/01/01 02:13:04;;;;;;;4.55;4.10;;;21.80;30.60;;;;;;5001550;28;20483;-69
2021/01/01 02:15:30;;;;;;;5.65;3.80;;;21.80;30.70;;;;;;5002026;28;20417;-68
2021/01/01 02:17:59;;;;;;;4.55;4.15;;;21.80;30.60;;;;;;5000812;28;20382;-68
2021/01/01 02:20:25;;;;;;;4.47;3.95;;;21.80;30.40;;;;;;5000481;28;20403;-68
2021/01/01 02:22:52;;;;;;;4.90;4.03;;;21.80;30.40;;;;;;5000163;28;20755;-69
2021/01/01 02:25:18;;;;;;;4.10;3.63;;;21.80;30.40;;;;;;4996694;28;20395;-68
2021/01/01 02:27:44;;;;;;;4.50;3.67;;;21.90;30.60;;;;;;4982715;28;20413;-68
2021/01/01 02:30:10;;;;;;;5.50;4.10;;;21.80;30.60;;;;;;5004596;28;20385;-69
2021/01/01 02:32:36;;;;;;;4.10;3.70;;;21.90;30.60;;;;;;5001656;28;20406;-69
2021/01/01 02:35:03;;;;;;;3.70;3.33;;;21.90;30.40;;;;;;5000188;28;20414;-69
2021/01/01 02:37:28;;;;;;;4.30;3.70;;;21.80;30.30;;;;;;4983319;28;20397;-69
2021/01/01 02:39:54;;;;;;;4.63;3.60;;;21.90;30.30;;;;;;5001365;28;20406;-69
2021/01/01 02:42:20;;;;;;;3.90;3.45;;;21.90;30.30;;;;;;5000056;28;20407;-69
2021/01/01 02:44:47;;;;;;;3.53;3.10;;;21.80;30.20;;;;;;5002699;28;20935;-68
2021/01/01 02:47:15;;;;;;;4.22;3.72;;;21.80;30.20;;;;;;4998349;28;20391;-69
2021/01/01 02:49:40;;;;;;;3.80;3.25;;;21.80;30.10;;;;;;4992127;28;20394;-69
2021/01/01 02:52:06;;;;;;;3.80;3.25;;;21.80;30.10;;;;;;4974959;28;20461;-68
2021/01/01 02:54:32;;;;;;;3.22;2.92;;;21.80;30.00;;;;;;4991910;28;20425;-69
2021/01/01 02:56:58;;;;;;;3.40;3.00;;;21.80;30.00;;;;;;4974625;28;20414;-69
2021/01/01 02:59:23;;;;;;;3.47;2.85;;;21.70;30.00;;;;;;4991678;28;20386;-69
2021/01/01 03:01:51;;;;;;;3.60;2.90;;;21.80;30.10;;;;;;4992078;28;20402;-68
2021/01/01 03:04:17;;;;;;;3.30;3.00;;;21.80;30.10;;;;;;4991950;28;20414;-69
2021/01/01 03:06:42;;;;;;;3.40;3.07;;;21.80;30.10;;;;;;4992168;28;20390;-68
2021/01/01 03:09:08;;;;;;;4.18;3.00;;;21.80;30.20;;;;;;4991962;28;20561;-69
2021/01/01 03:11:33;;;;;;;3.20;2.70;;;21.70;30.20;;;;;;4974044;28;20402;-68
2021/01/01 03:13:59;;;;;;;4.38;2.75;;;21.70;30.20;;;;;;4991943;28;20874;-68
2021/01/01 03:16:25;;;;;;;3.97;2.90;;;21.70;30.20;;;;;;4992045;28;20485;-69
2021/01/01 03:18:51;;;;;;;4.80;3.05;;;21.70;30.20;;;;;;4992115;28;20386;-69
2021/01/01 03:21:20;;;;;;;4.15;2.90;;;21.70;30.30;;;;;;4974325;28;20883;-69
2021/01/01 03:23:46;;;;;;;3.30;2.90;;;21.60;30.30;;;;;;4974570;28;20489;-68
2021/01/01 03:26:12;;;;;;;3.00;2.55;;;21.60;30.30;;;;;;4992115;28;20481;-69
2021/01/01 03:28:38;;;;;;;2.80;2.50;;;21.60;30.20;;;;;;4991947;28;20819;-68
2021/01/01 03:31:03;;;;;;;3.08;2.70;;;21.60;30.20;;;;;;4991979;28;20390;-68
2021/01/01 03:33:29;;;;;;;3.58;2.55;;;21.60;30.20;;;;;;4991455;28;20485;-68
2021/01/01 03:35:55;;;;;;;3.03;2.60;;;21.60;30.20;;;;;;4991931;28;20424;-68
2021/01/01 03:38:21;;;;;;;3.35;2.75;;;21.60;30.10;;;;;;4991834;28;20406;-69
2021/01/01 03:40:47;;;;;;;2.80;2.47;;;21.60;30.10;;;;;;4991751;28;20458;-68
2021/01/01 03:43:13;;;;;;;3.33;2.63;;;21.60;30.20;;;;;;4991731;28;20402;-68
2021/01/01 03:45:39;;;;;;;2.85;2.33;;;21.50;30.10;;;;;;4991344;28;20489;-68
2021/01/01 03:48:07;;;;;;;2.97;2.50;;;21.50;30.10;;;;;;4991782;28;20395;-68
2021/01/01 03:50:33;;;;;;;2.95;2.30;;;21.50;30.10;;;;;;4991649;28;20806;-68
2021/01/01 03:52:59;;;;;;;2.75;2.50;;;21.50;30.10;;;;;;4991559;28;20867;-68
2021/01/01 03:55:25;;;;;;;2.77;2.43;;;21.50;30.20;;;;;;4973802;28;20852;-68
2021/01/01 03:57:51;;;;;;;2.88;2.30;;;21.50;30.20;;;;;;4991689;28;20391;-68
2021/01/01 04:00:17;;;;;;;2.65;2.40;;;21.50;30.10;;;;;;4991822;28;20401;-69
2021/01/01 04:02:42;;;;;;;2.78;2.17;;;21.50;30.10;;;;;;4991581;28;20382;-69
2021/01/01 04:05:08;;;;;;;2.57;2.27;;;21.50;30.00;;;;;;4991651;28;20957;-68
2021/01/01 04:07:34;;;;;;;2.42;2.10;;;21.40;30.00;;;;;;4991126;28;20403;-68
2021/01/01 04:10:00;;;;;;;2.58;2.30;;;21.40;30.00;;;;;;4991616;28;20521;-69
2021/01/01 04:12:25;;;;;;;2.70;2.00;;;21.50;30.00;;;;;;4991329;28;20423;-68
2021/01/01 04:14:51;;;;;;;2.63;2.30;;;21.50;30.00;;;;;;4991857;28;20512;-68
2021/01/01 04:17:17;;;;;;;2.38;2.10;;;21.50;30.00;;;;;;4991238;28;20736;-69
2021/01/01 04:19:42;;;;;;;2.40;2.10;;;21.50;30.00;;;;;;4991318;28;20733;-68
2021/01/01 04:22:08;;;;;;;2.67;2.20;;;21.50;30.00;;;;;;4976874;28;20402;-68
2021/01/01 04:24:33;;;;;;;2.58;2.13;;;21.60;30.00;;;;;;4977450;28;20810;-69
2021/01/01 04:26:59;;;;;;;2.80;2.10;;;21.50;30.00;;;;;;4995073;28;20389;-68
2021/01/01 04:29:25;;;;;;;2.28;2.00;;;21.50;30.00;;;;;;4994501;28;20394;-68
2021/01/01 04:31:51;;;;;;;2.50;2.13;;;21.50;30.00;;;;;;4977251;28;20393;-69
2021/01/01 04:34:16;;;;;;;2.25;1.98;;;21.50;30.00;;;;;;4994694;28;20413;-68
2021/01/01 04:36:42;;;;;;;2.30;2.00;;;21.50;30.00;;;;;;4994695;28;20415;-69
2021/01/01 04:39:08;;;;;;;2.17;1.90;;;21.50;30.00;;;;;;4977133;28;20397;-68
2021/01/01 04:41:34;;;;;;;2.22;1.80;;;21.50;30.00;;;;;;4976550;28;20394;-69
2021/01/01 04:44:00;;;;;;;2.30;1.85;;;21.40;30.00;;;;;;4977232;28;20398;-69
2021/01/01 04:46:26;;;;;;;2.50;1.90;;;21.40;29.90;;;;;;4994540;28;20402;-68
2021/01/01 04:48:52;;;;;;;2.20;1.90;;;21.40;29.90;;;;;;4977005;28;20402;-69
2021/01/01 04:51:17;;;;;;;2.20;1.95;;;21.40;29.90;;;;;;4994358;28;20754;-69
2021/01/01 04:53:43;;;;;;;2.42;2.10;;;21.40;29.90;;;;;;4994196;28;20395;-69
2021/01/01 04:56:09;;;;;;;2.50;1.90;;;21.40;29.90;;;;;;4976882;28;20564;-68
2021/01/01 04:58:35;;;;;;;2.20;1.80;;;21.40;29.90;;;;;;4976948;28;20863;-68
2021/01/01 05:01:02;;;;;;;2.33;1.85;;;21.40;30.00;;;;;;4994403;28;20452;-68
2021/01/01 05:03:28;;;;;;;2.13;1.80;;;21.40;29.90;;;;;;4976191;28;20445;-69
2021/01/01 05:05:54;;;;;;;2.25;1.90;;;21.40;30.00;;;;;;4976890;28;20410;-68
2021/01/01 05:08:21;;;;;;;3.13;2.00;;;21.30;30.10;;;;;;4976324;28;20390;-68
2021/01/01 05:10:48;;;;;;;3.78;1.90;;;21.30;30.30;;;;;;4976698;28;20399;-68
2021/01/01 05:13:20;;;;;;;2.10;1.90;;;21.30;30.40;;;;;;4976632;28;20395;-68
2021/01/01 05:15:48;;;;;;;1.92;1.73;;;21.30;30.60;;;;;;4993722;28;20414;-68
2021/01/01 05:18:18;;;;;;;2.70;1.60;;;21.30;30.50;;;;;;4976486;28;20916;-69
2021/01/01 05:20:45;;;;;;;2.03;1.70;;;21.30;30.80;;;;;;4993990;28;20402;-68
2021/01/01 05:23:21;;;;;;;2.00;1.63;;;21.30;31.00;;;;;;4976308;28;20474;-68
2021/01/01 05:25:48;;;;;;;2.50;1.83;;;21.30;31.10;;;;;;4976333;28;20411;-68
2021/01/01 05:28:14;;;;;;;2.53;1.60;;;21.40;31.10;;;;;;4976469;28;20755;-68
2021/01/01 05:30:41;;;;;;;2.65;1.70;;;21.40;31.00;;;;;;4993406;28;20393;-68
2021/01/01 05:33:07;;;;;;;2.10;1.60;;;21.30;31.00;;;;;;4975146;28;20394;-68
2021/01/01 05:35:33;;;;;;;2.00;1.67;;;21.30;31.40;;;;;;4975639;28;20473;-68
2021/01/01 05:38:17;;;;;;;2.05;1.75;;;21.30;31.40;;;;;;4993372;28;20755;-68
2021/01/01 05:40:48;;;;;;;2.75;1.52;;;21.30;31.30;;;;;;4976126;28;20453;-68
2021/01/01 05:43:22;;;;;;;2.05;1.60;;;21.40;31.30;;;;;;4993447;28;20473;-68
2021/01/01 05:45:47;;;;;;;2.53;1.80;;;21.40;31.20;;;;;;4993398;28;20422;-67
2021/01/01 05:48:13;;;;;;;2.00;1.50;;;21.40;31.20;;;;;;4992810;28;20434;-68
2021/01/01 05:50:39;;;;;;;2.10;1.73;;;21.40;31.00;;;;;;4976216;28;20398;-68
2021/01/01 05:53:18;;;;;;;2.97;1.88;;;21.40;30.90;;;;;;4993511;28;20394;-68
2021/01/01 05:55:45;;;;;;;3.33;1.73;;;21.40;31.40;;;;;;4991843;28;20418;-67
2021/01/01 05:58:25;;;;;;;6.70;2.05;;;21.60;31.50;;;;;;4993022;28;20418;-68
2021/01/01 06:00:57;;;;;;;5.15;1.90;;;21.60;33.70;;;;;;4992738;28;20779;-67
2021/01/01 06:03:27;;;;;;;3.92;1.90;;;21.60;33.50;;;;;;4992306;28;20411;-68
2021/01/01 06:05:55;;;;;;;4.22;2.10;;;21.70;33.50;;;;;;4993086;28;20909;-68
2021/01/01 06:08:29;;;;;;;3.88;1.98;;;21.70;33.20;;;;;;4992950;28;20409;-67
2021/01/01 06:11:03;;;;;;;3.38;2.00;;;21.60;32.90;;;;;;4992535;28;20409;-68
2021/01/01 06:13:33;;;;;;;4.35;1.80;;;21.60;33.60;;;;;;4992285;28;20394;-67
2021/01/01 06:16:01;;;;;;;3.78;1.80;;;21.70;33.70;;;;;;4992954;28;20422;-67
2021/01/01 06:18:31;;;;;;;3.83;1.75;;;21.70;33.40;;;;;;4992654;28;20750;-67
2021/01/01 06:21:05;;;;;;;4.70;1.80;;;21.60;33.60;;;;;;4992876;28;20917;-68
2021/01/01 06:23:38;;;;;;;3.17;1.80;;;21.70;34.10;;;;;;4992177;28;20434;-67
2021/01/01 06:26:11;;;;;;;3.60;1.70;;;21.70;33.20;;;;;;4975109;28;20405;-67
2021/01/01 06:28:43;;;;;;;4.75;1.60;;;21.70;33.20;;;;;;4992621;28;20937;-67
2021/01/01 06:31:10;;;;;;;6.35;1.80;;;21.70;33.00;;;;;;4992857;28;20394;-67
2021/01/01 06:33:36;;;;;;;4.60;1.70;;;21.60;32.90;;;;;;4990640;28;20395;-67
2021/01/01 06:36:02;;;;;;;4.50;1.63;;;21.60;31.70;;;;;;4991019;28;20894;-67
2021/01/01 06:38:42;;;;;;;3.97;1.55;;;21.60;32.00;;;;;;4992195;28;20450;-67
2021/01/01 06:41:13;;;;;;;7.38;1.70;;;21.60;32.10;;;;;;4974798;28;20414;-67
2021/01/01 06:43:54;;;;;;;3.90;1.60;;;21.50;31.90;;;;;;4991561;28;20450;-68
2021/01/01 06:46:42;;;;;;;5.82;2.20;;;21.50;31.90;;;;;;4991754;28;20399;-68
2021/01/01 06:49:29;;;;;;;2.72;1.60;;;21.50;31.80;;;;;;4992496;28;20413;-68
2021/01/01 06:52:16;;;;;;;3.65;1.60;;;21.40;31.80;;;;;;4992103;28;20430;-67
2021/01/01 06:54:57;;;;;;;5.13;1.70;;;21.40;31.80;;;;;;4974870;28;20792;-68
2021/01/01 06:57:25;;;;;;;2.83;1.30;;;21.40;31.70;;;;;;4992216;28;20440;-67
2021/01/01 06:59:55;;;;;;;4.03;1.60;;;21.40;31.60;;;;;;4992184;28;20933;-68
2021/01/01 07:02:25;;;;;;;4.05;1.63;;;21.40;31.60;;;;;;4974833;28;20841;-67
2021/01/01 07:04:51;;;;;;;2.83;1.50;;;21.40;31.50;;;;;;4992217;28;20457;-68
2021/01/01 07:07:38;;;;;;;3.33;1.40;;;21.40;31.40;;;;;;4992331;28;20402;-67
2021/01/01 07:10:05;;;;;;;3.10;1.60;;;21.40;31.30;;;;;;4992266;28;20768;-68
2021/01/01 07:12:31;;;;;;;2.70;1.40;;;21.40;31.30;;;;;;4991822;28;20433;-67
2021/01/01 07:14:56;;;;;;;2.40;1.50;;;21.40;31.20;;;;;;4992091;28;20851;-67
2021/01/01 07:17:22;;;;;;;2.40;1.70;;;21.40;31.10;;;;;;4974674;28;20391;-68
2021/01/01 07:19:48;;;;;;;1.90;1.40;;;21.40;31.10;;;;;;4974266;28;20453;-67
2021/01/01 07:22:14;;;;;;;2.20;1.50;;;21.30;31.00;;;;;;4974514;28;20548;-68
2021/01/01 07:24:42;;;;;;;2.85;1.70;;;21.30;30.90;;;;;;4974451;28;20398;-68
2021/01/01 07:27:09;;;;;;;2.50;1.50;;;21.30;30.90;;;;;;4974686;28;20443;-68
2021/01/01 07:29:34;;;;;;;1.98;1.40;;;21.30;30.90;;;;;;4991226;28;20409;-67
2021/01/01 07:32:00;;;;;;;2.13;1.45;;;21.30;30.90;;;;;;4991817;28;20428;-68
2021/01/01 07:34:26;;;;;;;2.20;1.60;;;21.30;30.80;;;;;;4991818;28;20504;-68
2021/01/01 07:36:53;;;;;;;1.92;1.40;;;21.30;30.90;;;;;;4991881;28;20420;-67
2021/01/01 07:39:27;;;;;;;2.65;1.63;;;21.30;30.90;;;;;;4991885;28;20395;-68
2021/01/01 07:42:03;;;;;;;1.90;1.50;;;21.30;30.80;;;;;;4974298;28;20410;-67
2021/01/01 07:44:29;;;;;;;2.10;1.60;;;21.30;30.90;;;;;;4991859;28;20387;-67
2021/01/01 07:46:55;;;;;;;2.10;1.60;;;21.30;30.80;;;;;;4991855;28;20398;-67
2021/01/01 07:49:20;;;;;;;2.40;1.60;;;21.30;30.70;;;;;;4991736;28;20397;-68
2021/01/01 07:51:46;;;;;;;1.80;1.58;;;21.30;30.70;;;;;;4991385;28;20879;-67
2021/01/01 07:54:12;;;;;;;1.90;1.50;;;21.30;30.70;;;;;;4991802;28;20875;-67
2021/01/01 07:56:37;;;;;;;2.05;1.70;;;21.30;30.70;;;;;;4993951;28;20405;-67
2021/01/01 07:59:03;;;;;;;2.10;1.60;;;21.30;30.60;;;;;;4995560;28;20418;-67
2021/01/01 08:01:30;;;;;;;2.00;1.63;;;21.30;30.60;;;;;;4995354;28;20410;-67
2021/01/01 08:03:56;;;;;;;2.30;1.60;;;21.30;30.60;;;;;;4995017;28;20421;-67
2021/01/01 08:06:23;;;;;;;2.23;1.67;;;21.30;30.50;;;;;;4995199;28;20398;-68
2021/01/01 08:08:49;;;;;;;2.30;1.75;;;21.20;30.50;;;;;;4977830;28;20905;-67
2021/01/01 08:11:15;;;;;;;2.22;1.52;;;21.20;30.50;;;;;;4995363;28;20874;-67
2021/01/01 08:13:40;;;;;;;2.00;1.60;;;21.20;30.50;;;;;;4994802;28;20395;-68
2021/01/01 08:16:15;;;;;;;2.45;1.60;;;21.20;30.50;;;;;;4995355;28;20826;-67
2021/01/01 08:18:41;;;;;;;1.90;1.60;;;21.20;30.50;;;;;;4995228;28;20383;-68
2021/01/01 08:21:07;;;;;;;2.40;1.70;;;21.20;30.50;;;;;;4995311;28;20401;-67
2021/01/01 08:23:54;;;;;;;1.90;1.65;;;21.20;30.50;;;;;;4994806;28;20399;-67
2021/01/01 08:26:20;;;;;;;1.90;1.50;;;21.20;30.60;;;;;;4995070;28;20909;-67
2021/01/01 08:28:46;;;;;;;2.00;1.80;;;21.20;30.60;;;;;;4995032;28;20918;-67
2021/01/01 08:31:17;;;;;;;2.22;1.80;;;21.20;30.70;;;;;;4995053;28;20436;-67
2021/01/01 08:33:43;;;;;;;1.80;1.60;;;21.20;30.70;;;;;;4994494;28;20993;-67
2021/01/01 08:36:11;;;;;;;2.03;1.70;;;21.20;30.70;;;;;;4994781;28;20464;-67
2021/01/01 08:38:39;;;;;;;2.13;1.70;;;21.20;30.70;;;;;;4994847;28;20386;-67
2021/01/01 08:41:06;;;;;;;2.20;1.90;;;21.10;30.50;;;;;;4994669;28;20556;-67
2021/01/01 08:43:32;;;;;;;2.33;1.85;;;21.10;30.40;;;;;;4994545;28;20414;-67
2021/01/01 08:45:58;;;;;;;3.05;2.10;;;21.20;30.50;;;;;;4994483;28;20858;-67
2021/01/01 08:48:30;;;;;;;2.33;2.10;;;21.20;30.60;;;;;;4994631;28;20390;-67
2021/01/01 08:50:56;;;;;;;1.90;1.70;;;21.20;30.50;;;;;;4994670;28;20390;-67
2021/01/01 08:53:22;;;;;;;2.30;2.00;;;21.20;30.40;;;;;;4994584;28;20390;-67
2021/01/01 08:55:58;;;;;;;2.13;1.80;;;21.20;30.20;;;;;;4994009;28;20920;-67
2021/01/01 08:58:24;;;;;;;2.30;1.80;;;21.20;30.10;;;;;;4994412;28;20396;-67
2021/01/01 09:00:49;;;;;;;2.63;1.90;;;21.20;30.10;;;;;;4994520;28;20469;-67
2021/01/01 09:03:17;;;;;;;2.30;1.88;;;21.20;30.20;;;;;;4994436;28;20754;-68
2021/01/01 09:05:44;;;;;;;2.40;1.80;;;21.20;30.20;;;;;;4993905;28;20485;-68
2021/01/01 09:08:14;;;;;;;2.40;2.00;;;21.20;30.20;;;;;;4994131;28;20394;-67
2021/01/01 09:10:42;;;;;;;2.17;1.90;;;21.20;30.10;;;;;;4994492;28;20470;-67
2021/01/01 09:13:17;;;;;;;2.17;1.98;;;21.30;30.10;;;;;;4994089;28;20902;-67
2021/01/01 09:15:45;;;;;;;3.50;1.90;;;21.30;30.10;;;;;;4993338;28;20437;-67
2021/01/01 09:18:11;;;;;;;2.90;1.70;;;21.30;30.00;;;;;;4993291;28;20452;-67
2021/01/01 09:20:46;;;;;;;2.58;1.77;;;21.30;30.40;;;;;;4993890;28;20946;-67
2021/01/01 09:23:12;;;;;;;3.05;1.75;;;21.30;30.80;;;;;;4993813;28;20403;-68
2021/01/01 09:25:40;;;;;;;2.80;1.70;;;21.30;30.90;;;;;;4992735;28;20497;-67
2021/01/01 09:28:09;;;;;;;2.50;1.83;;;21.30;31.00;;;;;;4993850;28;20394;-67
2021/01/01 09:30:36;;;;;;;2.47;1.70;;;21.30;31.20;;;;;;4993805;28;20434;-67
2021/01/01 09:33:03;;;;;;;2.20;1.80;;;21.20;31.20;;;;;;4993630;28;20446;-67
2021/01/01 09:35:30;;;;;;;2.17;1.80;;;21.20;31.30;;;;;;4993529;28;20418;-67
2021/01/01 09:38:03;;;;;;;2.97;2.03;;;21.20;32.00;;;;;;4998106;28;20389;-68
2021/01/01 09:40:31;;;;;;;2.73;1.90;;;21.20;31.40;;;;;;4993471;28;20483;-68
2021/01/01 09:43:05;;;;;;;2.10;1.67;;;21.30;31.60;;;;;;5010312;28;20400;-67
2021/01/01 09:45:31;;;;;;;2.17;1.70;;;21.20;31.50;;;;;;5013061;28;20511;-68
2021/01/01 09:47:58;;;;;;;2.63;1.80;;;21.20;31.60;;;;;;5012732;28;20391;-68
2021/01/01 09:50:24;;;;;;;2.70;1.77;;;21.30;31.60;;;;;;5012881;28;20400;-68
2021/01/01 09:52:49;;;;;;;3.10;1.90;;;21.30;31.60;;;;;;5012984;28;20389;-68
2021/01/01 09:55:15;;;;;;;2.25;1.88;;;21.30;31.60;;;;;;4995186;28;20417;-68
2021/01/01 09:57:41;;;;;;;2.20;2.00;;;21.30;31.60;;;;;;4994550;28;20438;-67
2021/01/01 10:00:12;;;;;;;2.38;1.95;;;21.30;31.50;;;;;;4995251;28;20486;-68
2021/01/01 10:02:38;;;;;;;2.88;2.10;;;21.30;31.50;;;;;;4994354;28;20802;-68
2021/01/01 10:05:05;;;;;;;3.53;2.30;;;21.30;31.50;;;;;;4994922;28;20416;-68
2021/01/01 10:07:31;;;;;;;2.45;2.20;;;21.30;31.40;;;;;;5010500;28;20385;-67
2021/01/01 10:09:57;;;;;;;3.58;2.40;;;21.40;31.50;;;;;;5011762;28;20396;-68
2021/01/01 10:12:23;;;;;;;2.72;2.53;;;21.40;32.00;;;;;;5000249;28;20489;-67
2021/01/01 10:14:53;;;;;;;3.00;2.70;;;21.40;31.40;;;;;;4991689;28;20418;-67
2021/01/01 10:17:20;;;;;;;3.10;2.53;;;21.40;31.40;;;;;;4992853;28;20389;-68
2021/01/01 10:19:46;;;;;;;3.13;2.40;;;21.40;31.40;;;;;;4983302;28;20405;-69
2021/01/01 10:22:11;;;;;;;2.60;2.40;;;21.40;31.40;;;;;;5001738;28;20394;-68
2021/01/01 10:24:37;;;;;;;3.63;2.50;;;21.40;31.40;;;;;;5000448;28;20402;-70
2021/01/01 10:27:03;;;;;;;3.03;2.63;;;21.40;31.40;;;;;;5002136;28;20443;-69
2021/01/01 10:29:28;;;;;;;3.03;2.72;;;21.40;31.40;;;;;;4999600;28;20393;-69
2021/01/01 10:32:00;;;;;;;3.03;2.70;;;21.40;31.40;;;;;;4983868;28;20406;-68
2021/01/01 10:34:25;;;;;;;3.03;2.73;;;21.30;31.40;;;;;;4983206;28;20566;-68
2021/01/01 10:36:54;;;;;;;3.10;2.80;;;21.40;31.50;;;;;;4983377;28;20421;-69
2021/01/01 10:39:20;;;;;;;3.28;2.97;;;21.40;31.50;;;;;;5001972;28;20388;-69
2021/01/01 10:41:49;;;;;;;3.80;2.83;;;21.40;31.50;;;;;;5000307;28;20481;-69
2021/01/01 10:44:16;;;;;;;5.17;3.50;;;21.40;31.50;;;;;;5000321;28;20467;-68
2021/01/01 10:46:42;;;;;;;5.93;3.70;;;21.40;30.60;;;;;;5002361;28;20866;-68
2021/01/01 10:49:08;;;;;;;4.50;3.65;;;21.30;30.10;;;;;;5001093;28;20476;-69
2021/01/01 10:51:34;;;;;;;4.35;3.55;;;21.40;30.00;;;;;;5001140;28;20427;-69
2021/01/01 10:54:00;;;;;;;3.50;3.00;;;21.40;29.80;;;;;;4994508;28;20455;-68
2021/01/01 10:56:27;;;;;;;5.90;3.80;;;21.40;29.80;;;;;;4991851;28;20794;-69
2021/01/01 10:58:53;;;;;;;8.80;3.60;;;21.40;29.60;;;;;;4987830;28;20390;-68
2021/01/01 11:01:20;;;;;;;10.38;4.10;;;21.40;29.80;;;;;;4990143;28;20438;-68
2021/01/01 11:03:46;;;;;;;6.70;3.92;;;21.40;30.00;;;;;;4990993;28;20918;-69
2021/01/01 11:06:12;;;;;;;6.93;3.28;;;21.40;30.00;;;;;;4991369;28;20410;-68
2021/01/01 11:08:40;;;;;;;7.97;3.30;;;21.40;30.10;;;;;;4991955;28;20394;-69
2021/01/01 11:11:06;;;;;;;5.45;3.10;;;21.40;30.20;;;;;;4992021;28;20397;-69
2021/01/01 11:13:32;;;;;;;7.47;3.40;;;21.40;30.30;;;;;;4974453;28;20394;-69
2021/01/01 12:22:40;;;;;;;6.10;2.92;;;21.60;30.10;;;;;;4980012;28;20533;-68
2021/01/01 12:25:11;;;;;;;5.28;2.60;;;21.50;30.30;;;;;;4995417;28;20763;-68
2021/01/01 12:27:37;;;;;;;5.93;2.65;;;21.50;30.30;;;;;;4977339;28;20465;-68
2021/01/01 12:30:09;;;;;;;4.65;2.33;;;21.60;30.50;;;;;;4994482;28;20397;-69
2021/01/01 12:32:40;;;;;;;5.28;2.22;;;22.30;33.00;;;;;;4994640;28;20553;-68
2021/01/01 12:35:08;;;;;;;5.82;2.50;;;22.80;31.10;;;;;;5006559;28;20420;-68
2021/01/01 12:37:34;;;;;;;8.48;2.60;;;23.20;30.90;;;;;;5014139;28;20416;-70
2021/01/01 12:39:59;;;;;;;5.78;2.30;;;23.40;30.50;;;;;;5005138;28;20445;-69
2021/01/01 12:42:26;;;;;;;6.32;2.22;;;23.50;30.40;;;;;;4998936;28;20503;-68
2021/01/01 12:44:52;;;;;;;4.43;2.30;;;23.60;30.30;;;;;;5001807;28;20391;-68
2021/01/01 12:47:18;;;;;;;5.35;2.30;;;23.70;30.20;;;;;;4985255;28;20493;-68
2021/01/01 12:49:45;;;;;;;8.05;2.60;;;23.80;30.10;;;;;;5001998;28;20419;-68
2021/01/01 12:52:11;;;;;;;5.78;2.63;;;23.80;29.90;;;;;;5003791;28;20773;-68
2021/01/01 12:54:37;;;;;;;4.93;1.97;;;23.90;30.00;;;;;;5002566;28;20469;-68
2021/01/01 12:57:03;;;;;;;3.70;2.35;;;24.00;29.90;;;;;;5002146;28;20435;-68
2021/01/01 12:59:28;;;;;;;3.47;2.30;;;24.00;29.80;;;;;;5012917;28;20405;-68
2021/01/01 13:01:54;;;;;;;3.67;2.10;;;24.10;30.00;;;;;;5004127;28;20828;-68
2021/01/01 13:04:20;;;;;;;4.50;2.25;;;24.10;29.80;;;;;;4994215;28;20414;-68
2021/01/01 13:06:46;;;;;;;5.00;2.10;;;24.20;29.70;;;;;;4994173;28;20539;-68
2021/01/01 13:09:11;;;;;;;2.80;2.10;;;24.30;29.80;;;;;;4994194;28;20830;-68
2021/01/01 13:11:44;;;;;;;3.57;2.10;;;24.30;29.60;;;;;;4994101;28;20426;-68
2021/01/01 13:14:10;;;;;;;2.88;2.00;;;24.50;29.70;;;;;;4976287;28;20453;-68
2021/01/01 13:16:36;;;;;;;2.38;1.90;;;24.50;29.60;;;;;;4976600;28;20419;-68
2021/01/01 13:19:02;;;;;;;2.70;1.83;;;24.50;29.50;;;;;;4994097;28;20387;-68
2021/01/01 13:21:30;;;;;;;2.50;2.00;;;24.50;29.40;;;;;;4976309;28;20398;-68
2021/01/01 13:23:56;;;;;;;3.88;1.92;;;24.60;29.40;;;;;;4975937;28;20787;-68
2021/01/01 13:26:24;;;;;;;2.35;1.80;;;24.70;29.60;;;;;;4976451;28;20394;-68
2021/01/01 13:28:51;;;;;;;3.05;2.10;;;24.70;29.40;;;;;;4976320;28;20403;-68
2021/01/01 13:31:17;;;;;;;3.40;2.00;;;24.70;29.40;;;;;;4993882;28;20391;-68
2021/01/01 13:33:43;;;;;;;2.70;1.80;;;24.70;29.30;;;;;;4976604;28;20893;-69
2021/01/01 13:36:20;;;;;;;2.90;1.80;;;24.80;29.30;;;;;;5012911;28;20952;-69
2021/01/01 13:38:47;;;;;;;2.70;1.90;;;24.80;29.20;;;;;;5013655;28;20470;-68
2021/01/01 13:41:13;;;;;;;2.53;1.70;;;24.90;29.20;;;;;;4995317;28;20401;-68
2021/01/01 13:43:44;;;;;;;2.33;1.85;;;24.90;29.10;;;;;;5012917;28;20793;-68
2021/01/01 13:46:18;;;;;;;2.30;1.60;;;24.90;29.00;;;;;;5011852;28;20699;-68
2021/01/01 13:48:43;;;;;;;2.50;1.75;;;24.80;28.90;;;;;;4995212;28;20881;-68
2021/01/01 13:51:09;;;;;;;2.75;1.85;;;24.80;28.80;;;;;;4995450;28;20377;-69
2021/01/01 13:53:35;;;;;;;4.07;1.70;;;24.80;28.70;;;;;;5011770;28;20409;-68
2021/01/01 13:56:00;;;;;;;3.83;1.70;;;24.70;29.40;;;;;;5012267;28;20900;-68